createdAt,value
2023-03-23T15:59:51.541Z,99403.31
2023-03-23T16:02:59.201Z,99402.56
2023-03-23T16:06:06.451Z,99407.91
2023-03-23T16:09:16.193Z,99395.75
2023-03-23T16:12:21.450Z,99385.31
2023-03-23T16:15:26.743Z,99396.78
2023-03-23T16:18:32.102Z,99398.97
2023-03-23T16:21:38.303Z,99403.72
2023-03-23T16:24:43.438Z,99398.00
2023-03-23T16:27:52.657Z,99406.75
2023-03-23T16:30:58.221Z,99406.31
2023-03-23T16:34:03.291Z,99409.16
2023-03-23T16:37:10.675Z,99404.31
2023-03-23T16:40:16.814Z,99399.03
2023-03-23T16:43:22.973Z,99411.16
2023-03-23T16:46:28.072Z,99406.06
2023-03-23T16:49:33.250Z,99414.69
2023-03-23T16:52:46.620Z,99414.00
2023-03-23T16:55:53.657Z,99416.00
2023-03-23T16:59:02.960Z,99419.16
2023-03-23T17:02:08.236Z,99416.53
2023-03-23T17:05:13.631Z,99410.47
2023-03-23T17:08:20.632Z,99414.97
2023-03-23T17:11:25.878Z,99408.75
2023-03-23T17:14:31.077Z,99419.97
2023-03-23T17:17:36.672Z,99410.78
2023-03-23T17:20:41.810Z,99420.59
2023-03-23T17:23:48.425Z,99412.13
2023-03-23T17:26:53.558Z,99406.84
2023-03-23T17:29:58.855Z,99402.75
2023-03-23T17:33:04.181Z,99411.28
2023-03-23T17:36:10.140Z,99405.69
2023-03-23T17:39:16.789Z,99400.28
2023-03-23T17:42:22.175Z,99406.38
2023-03-23T17:45:27.281Z,99406.88
2023-03-23T17:48:32.318Z,99403.13
2023-03-23T17:51:37.445Z,99403.50
2023-03-23T17:54:43.992Z,99406.47
2023-03-23T17:57:49.051Z,99401.34
2023-03-23T18:00:54.378Z,99411.06
2023-03-23T18:03:59.710Z,99406.72
2023-03-23T18:07:05.164Z,99405.44
2023-03-23T18:10:13.140Z,99410.56
2023-03-23T18:13:18.434Z,99402.94
2023-03-23T18:16:23.556Z,99418.59
2023-03-23T18:19:28.988Z,99405.72
2023-03-23T18:22:34.086Z,99400.66
2023-03-23T18:25:40.538Z,99405.72
2023-03-23T18:28:45.703Z,99410.34
2023-03-23T18:31:51.141Z,99414.44
2023-03-23T18:34:56.670Z,99409.69
2023-03-23T18:38:01.782Z,99404.38
2023-03-23T18:41:10.461Z,99408.38
2023-03-23T18:44:15.647Z,99406.41
2023-03-23T18:47:21.540Z,99406.16
2023-03-23T18:50:26.697Z,99400.09
2023-03-23T18:53:31.977Z,99409.56
2023-03-23T18:56:38.487Z,99416.59
2023-03-23T18:59:43.686Z,99426.28
2023-03-23T19:02:51.900Z,99417.63
2023-03-23T19:06:00.462Z,99418.97
2023-03-23T19:09:06.187Z,99422.31
2023-03-23T19:12:15.192Z,99420.53
2023-03-23T19:15:21.054Z,99425.66
2023-03-23T19:18:26.528Z,99424.34
2023-03-23T19:21:32.639Z,99439.03
2023-03-23T19:24:38.472Z,99444.56
2023-03-23T19:28:23.131Z,99444.81
2023-03-23T19:31:10.682Z,99438.25
2023-03-23T19:34:17.047Z,99433.88
2023-03-23T19:37:22.263Z,99439.88
2023-03-23T19:43:39.435Z,99443.22
2023-03-23T19:46:44.705Z,99452.94
2023-03-23T19:49:50.869Z,99449.78
2023-03-23T19:52:58.678Z,99456.19
2023-03-23T19:56:05.439Z,99457.31
2023-03-23T19:59:15.001Z,99453.78
2023-03-23T20:02:20.552Z,99466.06
2023-03-23T20:05:25.476Z,99453.31
2023-03-23T20:08:31.366Z,99457.84
2023-03-23T20:11:36.628Z,99460.25
2023-03-23T20:14:45.394Z,99461.81
2023-03-23T20:17:50.762Z,99470.00
2023-03-23T20:21:02.697Z,99462.97
2023-03-23T20:24:07.982Z,99461.06
2023-03-23T20:27:13.555Z,99467.28
2023-03-23T20:30:20.528Z,99459.66
2023-03-23T20:33:26.523Z,99456.22
2023-03-23T20:36:35.230Z,99468.97
2023-03-23T20:39:42.361Z,99471.00
2023-03-23T20:42:48.295Z,99474.53
2023-03-23T20:45:54.923Z,99476.56
2023-03-23T20:49:01.016Z,99488.66
2023-03-23T20:52:08.358Z,99480.28
2023-03-23T20:55:15.432Z,99490.34
2023-03-23T20:58:21.243Z,99487.69
2023-03-23T21:01:27.832Z,99495.22
2023-03-23T21:04:33.013Z,99496.81
2023-03-23T21:07:39.353Z,99490.84
2023-03-23T21:10:45.163Z,99496.47
2023-03-23T21:13:51.047Z,99492.19
2023-03-23T21:17:01.407Z,99495.44
2023-03-23T21:20:07.886Z,99500.25
2023-03-23T21:23:14.957Z,99503.66
2023-03-23T21:26:21.894Z,99496.13
2023-03-23T21:29:27.678Z,99497.00
2023-03-23T21:32:34.617Z,99503.41
2023-03-23T21:35:40.147Z,99519.59
2023-03-23T21:38:46.088Z,99521.19
2023-03-23T21:41:51.228Z,99521.19
2023-03-23T21:44:56.812Z,99532.81
2023-03-23T21:48:03.792Z,99530.19
2023-03-23T21:51:10.764Z,99540.50
2023-03-23T21:54:15.826Z,99537.47
2023-03-23T21:57:20.973Z,99539.09
2023-03-23T22:00:26.883Z,99539.03
2023-03-23T22:03:34.759Z,99549.03
2023-03-23T22:06:39.913Z,99544.16
2023-03-23T22:09:45.884Z,99544.94
2023-03-23T22:12:54.971Z,99548.38
2023-03-23T22:16:02.043Z,99549.25
2023-03-23T22:19:09.047Z,99543.22
2023-03-23T22:22:14.247Z,99552.84
2023-03-23T22:25:19.797Z,99556.09
2023-03-23T22:28:26.430Z,99548.66
2023-03-23T22:31:35.223Z,99552.31
2023-03-23T22:34:44.374Z,99551.19
2023-03-23T22:37:49.584Z,99556.28
2023-03-23T22:40:58.432Z,99561.41
2023-03-23T22:44:03.663Z,99560.34
2023-03-23T22:47:08.813Z,99564.72
2023-03-23T22:50:16.386Z,99564.50
2023-03-23T22:53:22.043Z,99570.47
2023-03-23T22:56:27.427Z,99577.94
2023-03-23T22:59:32.605Z,99566.00
2023-03-23T23:02:37.797Z,99558.53
2023-03-23T23:05:46.065Z,99574.56
2023-03-23T23:08:51.816Z,99582.75
2023-03-23T23:11:56.953Z,99570.50
2023-03-23T23:15:02.603Z,99578.31
2023-03-23T23:18:15.837Z,99577.19
2023-03-23T23:21:26.107Z,99582.44
2023-03-23T23:24:31.275Z,99581.84
2023-03-23T23:27:36.893Z,99582.63
2023-03-23T23:30:42.054Z,99584.41
2023-03-23T23:33:47.311Z,99591.25
2023-03-23T23:36:54.882Z,99602.44
2023-03-23T23:40:00.105Z,99590.34
2023-03-23T23:43:08.390Z,99589.34
2023-03-23T23:46:13.816Z,99587.69
2023-03-23T23:49:23.028Z,99583.41
2023-03-23T23:52:29.756Z,99575.03
2023-03-23T23:55:34.922Z,99585.06
2023-03-23T23:58:40.616Z,99594.22
